createdAt,value
2018-06-18T00:02:16.881Z,42.00
2018-06-18T00:04:50.177Z,41.10
2018-06-18T00:07:23.916Z,40.60
2018-06-18T00:09:56.897Z,41.50
2018-06-18T00:12:29.930Z,41.30
2018-06-18T00:15:03.186Z,41.90
2018-06-18T00:17:36.306Z,43.70
2018-06-18T00:20:09.352Z,42.00
2018-06-18T00:22:42.787Z,43.30
2018-06-18T00:25:15.788Z,43.20
2018-06-18T00:27:48.799Z,43.30
2018-06-18T00:30:21.869Z,43.10
2018-06-18T00:32:54.796Z,42.00
2018-06-18T00:35:27.717Z,41.70
2018-06-18T00:38:00.874Z,44.20
2018-06-18T00:40:33.783Z,42.30
2018-06-18T00:43:06.788Z,42.00
2018-06-18T00:45:39.676Z,42.30
2018-06-18T00:48:12.643Z,41.00
2018-06-18T00:50:45.551Z,40.90
2018-06-18T00:53:20.107Z,39.30
2018-06-18T00:56:02.030Z,38.30
2018-06-18T00:58:35.475Z,38.80
2018-06-18T01:01:08.459Z,36.60
2018-06-18T01:03:41.537Z,36.10
2018-06-18T01:06:14.440Z,35.50
2018-06-18T01:08:48.458Z,36.90
2018-06-18T01:11:21.477Z,34.80
2018-06-18T01:13:54.535Z,35.20
2018-06-18T01:16:27.531Z,33.90
2018-06-18T01:19:00.529Z,34.00
2018-06-18T01:21:33.549Z,34.10
2018-06-18T01:24:20.438Z,35.50
2018-06-18T01:26:53.419Z,36.00
2018-06-18T01:29:26.568Z,37.70
2018-06-18T01:31:59.469Z,38.30
2018-06-18T01:34:32.826Z,34.20
2018-06-18T01:37:05.778Z,34.80
2018-06-18T01:39:38.825Z,33.30
2018-06-18T01:42:11.812Z,33.40
2018-06-18T01:44:44.719Z,32.50
2018-06-18T01:47:17.910Z,30.90
2018-06-18T01:49:52.026Z,29.90
2018-06-18T01:52:26.260Z,29.50
2018-06-18T01:55:00.456Z,29.50
2018-06-18T01:57:36.360Z,28.80
2018-06-18T02:00:14.308Z,28.60
2018-06-18T02:02:47.490Z,29.20
2018-06-18T02:05:23.524Z,29.50
2018-06-18T02:07:58.727Z,28.20
2018-06-18T02:10:31.985Z,28.60
2018-06-18T02:13:05.024Z,27.60
2018-06-18T02:15:38.083Z,28.00
2018-06-18T02:18:11.097Z,27.90
2018-06-18T02:20:44.268Z,28.10
2018-06-18T02:23:17.435Z,28.40
2018-06-18T02:25:51.670Z,28.40
2018-06-18T02:28:28.737Z,29.10
2018-06-18T02:31:05.890Z,30.40
2018-06-18T02:33:43.144Z,33.20
2018-06-18T02:36:20.163Z,33.80
2018-06-18T02:38:54.697Z,33.70
2018-06-18T02:41:27.868Z,34.30
2018-06-18T02:44:00.901Z,34.90
2018-06-18T02:46:33.879Z,35.70
2018-06-18T02:49:07.802Z,36.40
2018-06-18T02:51:40.895Z,37.90
2018-06-18T02:54:13.929Z,37.10
2018-06-18T02:56:56.216Z,37.20
2018-06-18T02:59:29.157Z,38.90
2018-06-18T03:02:02.202Z,39.30
2018-06-18T03:04:35.245Z,40.10
2018-06-18T03:07:08.063Z,39.60
2018-06-18T03:09:41.848Z,39.20
2018-06-18T03:12:15.437Z,40.00
2018-06-18T03:14:48.947Z,42.20
2018-06-18T03:17:21.889Z,41.20
2018-06-18T03:19:58.969Z,40.50
2018-06-18T03:22:36.064Z,42.00
2018-06-18T03:27:19.333Z,42.70
2018-06-18T03:29:53.248Z,44.80
2018-06-18T03:32:28.722Z,44.00
2018-06-18T03:35:01.738Z,48.80
2018-06-18T03:37:34.820Z,50.80
2018-06-18T03:40:07.928Z,50.80
2018-06-18T03:42:41.067Z,53.90
2018-06-18T03:45:18.703Z,53.90
2018-06-18T03:47:51.733Z,53.30
2018-06-18T03:50:24.790Z,54.30
2018-06-18T03:52:57.795Z,59.90
2018-06-18T03:55:43.419Z,59.60
2018-06-18T03:58:16.547Z,62.10
2018-06-18T04:01:06.655Z,63.60
2018-06-18T04:03:44.241Z,62.40
2018-06-18T04:06:21.793Z,62.50
2018-06-18T04:08:59.089Z,65.90
2018-06-18T04:11:36.246Z,64.10
2018-06-18T04:14:09.342Z,56.10
2018-06-18T04:16:42.368Z,63.80
2018-06-18T04:19:15.346Z,65.20
2018-06-18T04:21:48.293Z,67.10
2018-06-18T04:24:21.588Z,68.70
2018-06-18T04:26:54.542Z,67.80
2018-06-18T04:29:27.526Z,68.00
2018-06-18T04:32:00.649Z,66.80
2018-06-18T04:34:41.650Z,66.60
2018-06-18T04:37:14.620Z,68.40
2018-06-18T04:39:47.694Z,71.00
2018-06-18T04:42:24.821Z,71.30
2018-06-18T04:45:01.905Z,68.00
2018-06-18T04:47:39.038Z,69.20
2018-06-18T04:50:16.107Z,69.30
2018-06-18T04:52:49.078Z,69.80
2018-06-18T04:55:22.071Z,68.10
2018-06-18T04:57:58.014Z,68.60
2018-06-18T05:01:33.866Z,68.60
2018-06-18T05:04:06.824Z,68.00
2018-06-18T05:06:39.865Z,67.90
2018-06-18T05:09:21.978Z,67.60
2018-06-18T05:11:54.831Z,67.60
2018-06-18T05:14:27.927Z,67.40
2018-06-18T05:17:00.808Z,65.20
2018-06-18T05:19:33.959Z,68.10
2018-06-18T05:22:06.907Z,69.00
2018-06-18T05:24:39.853Z,68.50
2018-06-18T05:27:15.584Z,70.00
2018-06-18T05:29:48.552Z,70.10
2018-06-18T05:32:21.856Z,70.80
2018-06-18T05:34:54.836Z,70.90
2018-06-18T05:37:36.733Z,72.40
2018-06-18T05:40:09.723Z,71.40
2018-06-18T05:42:42.738Z,71.20
2018-06-18T05:45:16.120Z,72.00
2018-06-18T05:47:48.967Z,72.40
2018-06-18T05:50:21.945Z,70.20
2018-06-18T05:52:55.364Z,71.60
2018-06-18T05:55:28.449Z,72.60
2018-06-18T05:58:01.427Z,72.00
2018-06-18T06:00:34.311Z,71.20
2018-06-18T06:03:07.377Z,73.50
2018-06-18T06:05:40.322Z,73.90
2018-06-18T06:08:13.356Z,74.50
2018-06-18T06:10:46.270Z,73.80
2018-06-18T06:13:19.088Z,75.90
2018-06-18T06:15:52.105Z,76.70
2018-06-18T06:18:25.144Z,74.00
2018-06-18T06:21:04.262Z,75.70
2018-06-18T06:23:37.338Z,74.00
2018-06-18T06:26:10.302Z,74.50
2018-06-18T06:28:43.239Z,75.80
2018-06-18T06:31:16.109Z,74.40
2018-06-18T06:33:49.034Z,74.60
2018-06-18T06:36:22.687Z,74.70
2018-06-18T06:38:55.712Z,74.90
2018-06-18T06:41:29.964Z,73.40
2018-06-18T06:44:02.979Z,73.70
2018-06-18T06:46:36.043Z,71.30
2018-06-18T06:49:08.995Z,72.80
2018-06-18T06:51:41.928Z,74.40
2018-06-18T06:54:15.008Z,74.00
2018-06-18T06:56:47.884Z,74.80
2018-06-18T06:59:20.908Z,74.50
2018-06-18T07:01:53.839Z,74.80
2018-06-18T07:04:26.688Z,75.00
2018-06-18T07:06:59.731Z,75.60
2018-06-18T07:09:32.631Z,76.80
2018-06-18T07:12:05.546Z,77.00
2018-06-18T07:14:38.564Z,77.60
2018-06-18T07:17:11.530Z,77.70
2018-06-18T07:19:44.530Z,79.80
2018-06-18T07:22:17.600Z,82.50
2018-06-18T07:24:50.646Z,82.10
2018-06-18T07:27:23.495Z,84.50
2018-06-18T07:29:56.458Z,84.20
2018-06-18T07:32:29.386Z,85.00
2018-06-18T07:35:02.267Z,85.20
2018-06-18T07:37:35.205Z,85.80
2018-06-18T07:40:08.155Z,86.10
2018-06-18T07:42:41.147Z,87.20
2018-06-18T14:36:02.768Z,97.60
2018-06-18T15:17:46.401Z,77.50
2018-06-18T15:20:20.281Z,80.50
2018-06-18T15:23:04.328Z,81.90
2018-06-18T15:25:45.327Z,81.70
2018-06-18T15:28:18.349Z,79.30
2018-06-18T15:30:51.414Z,82.90
2018-06-18T15:33:24.602Z,85.10
2018-06-18T15:35:58.272Z,84.40
2018-06-18T15:38:31.288Z,82.30
2018-06-18T15:41:04.241Z,83.00
2018-06-18T15:43:38.986Z,84.70
2018-06-18T15:46:11.965Z,83.70
2018-06-18T15:48:45.128Z,84.90
2018-06-18T15:51:19.282Z,84.50
2018-06-18T15:53:53.605Z,83.10
2018-06-18T15:56:26.705Z,85.00
2018-06-18T15:59:00.813Z,81.70
2018-06-18T16:01:33.909Z,83.70
2018-06-18T16:04:07.409Z,82.70
2018-06-18T16:06:40.473Z,84.10
2018-06-18T16:09:13.803Z,81.90
2018-06-18T16:11:46.939Z,82.30
2018-06-18T16:14:20.247Z,83.50
2018-06-18T16:16:53.466Z,84.00
2018-06-18T16:19:28.301Z,83.60
2018-06-18T16:22:02.256Z,81.70
2018-06-18T16:24:35.710Z,82.50
2018-06-18T16:27:08.975Z,79.90
2018-06-18T16:29:42.037Z,82.30
2018-06-18T16:32:15.257Z,80.70
2018-06-18T16:34:48.443Z,80.60
2018-06-18T16:37:22.586Z,81.30
2018-06-18T16:39:57.784Z,81.80
2018-06-18T16:42:33.141Z,80.10
2018-06-18T16:45:08.194Z,81.30
2018-06-18T16:47:45.162Z,79.60
2018-06-18T16:50:19.248Z,81.60
2018-06-18T16:52:53.755Z,81.90
2018-06-18T17:00:43.946Z,78.60
2018-06-18T17:03:18.075Z,77.50
2018-06-18T17:05:53.655Z,79.30
2018-06-18T17:08:26.821Z,79.00
2018-06-18T17:11:00.985Z,80.00
2018-06-18T17:13:36.332Z,77.00
2018-06-18T17:16:09.935Z,77.50
2018-06-18T17:18:43.116Z,76.20
2018-06-18T17:21:20.430Z,77.70
2018-06-18T17:23:55.658Z,78.20
2018-06-18T17:26:30.936Z,77.30
2018-06-18T17:29:04.413Z,76.00
2018-06-18T17:31:41.279Z,76.90
2018-06-18T17:34:15.961Z,76.80
2018-06-18T17:39:31.783Z,76.30
2018-06-18T17:42:05.086Z,73.50
2018-06-18T17:44:38.170Z,75.80
2018-06-18T17:47:11.388Z,74.10
2018-06-18T17:49:44.674Z,72.20
2018-06-18T17:52:17.792Z,73.60
2018-06-18T17:54:55.209Z,75.00
2018-06-18T17:57:28.404Z,70.60
2018-06-18T18:02:39.109Z,73.20
2018-06-18T18:05:13.211Z,73.20
2018-06-18T18:07:46.453Z,74.60
2018-06-18T18:10:19.585Z,74.10
2018-06-18T18:12:52.832Z,72.60
2018-06-18T18:15:25.953Z,71.70
2018-06-18T18:17:58.910Z,73.00
2018-06-18T18:20:33.295Z,72.20
2018-06-18T18:23:06.895Z,71.50
2018-06-18T18:25:41.228Z,71.40
2018-06-18T18:28:15.281Z,73.40
2018-06-18T18:30:49.787Z,70.80
2018-06-18T18:33:23.142Z,71.20
2018-06-18T18:35:57.312Z,71.10
2018-06-18T18:38:32.418Z,69.80
2018-06-18T18:41:08.309Z,66.50
2018-06-18T18:43:43.686Z,65.30
2018-06-18T18:46:17.824Z,68.10
2018-06-18T18:48:50.867Z,67.40
2018-06-18T18:51:24.597Z,71.40
2018-06-18T18:53:59.498Z,67.50
2018-06-18T18:56:43.035Z,67.60
2018-06-18T18:59:24.255Z,66.30
2018-06-18T19:01:59.484Z,65.70
2018-06-18T19:04:43.644Z,67.30
2018-06-18T19:07:16.953Z,65.90
2018-06-18T19:10:03.156Z,66.60
2018-06-18T19:12:36.447Z,65.00
2018-06-18T19:15:10.667Z,66.30
2018-06-18T19:17:43.896Z,61.30
2018-06-18T19:20:20.691Z,60.80
2018-06-18T19:22:53.975Z,57.90
2018-06-18T19:25:27.351Z,58.80
2018-06-18T19:28:00.572Z,59.60
2018-06-18T19:30:34.774Z,60.40
2018-06-18T19:33:25.305Z,59.10
2018-06-18T19:36:01.127Z,55.80
2018-06-18T19:38:35.157Z,59.60
2018-06-18T19:41:08.196Z,57.90
2018-06-18T19:43:41.519Z,59.10
2018-06-18T19:46:22.022Z,58.90
2018-06-18T19:49:03.656Z,59.20
2018-06-18T19:51:36.782Z,58.10
2018-06-18T19:54:14.320Z,57.40
2018-06-18T19:56:47.441Z,58.70
2018-06-18T19:59:20.530Z,60.80
2018-06-18T20:01:53.508Z,57.60
2018-06-18T20:04:26.567Z,56.90
2018-06-18T20:06:59.560Z,56.60
2018-06-18T20:09:32.654Z,56.90
2018-06-18T20:12:05.879Z,57.00
2018-06-18T20:14:39.895Z,55.20
2018-06-18T20:17:13.456Z,57.30
2018-06-18T20:19:46.594Z,56.50
2018-06-18T20:22:21.533Z,54.60
2018-06-18T20:24:55.026Z,54.40
2018-06-18T20:27:28.215Z,55.80
2018-06-18T20:30:01.420Z,54.60
2018-06-18T20:32:35.675Z,55.00
2018-06-18T20:35:13.066Z,53.90
2018-06-18T20:37:46.504Z,54.70
2018-06-18T20:40:19.870Z,53.00
2018-06-18T20:42:53.112Z,54.80
2018-06-18T20:45:26.429Z,51.50
2018-06-18T20:47:59.891Z,52.10
2018-06-18T20:50:33.277Z,51.90
2018-06-18T20:53:06.549Z,52.00
2018-06-18T20:55:39.562Z,53.00
2018-06-18T20:58:13.552Z,51.60
2018-06-18T21:00:46.819Z,53.10
2018-06-18T21:03:20.454Z,49.20
2018-06-18T21:05:53.546Z,52.90
2018-06-18T21:08:26.676Z,50.20
2018-06-18T21:11:00.004Z,49.60
2018-06-18T21:13:33.015Z,49.00
2018-06-18T21:16:06.138Z,48.20
2018-06-18T21:18:40.486Z,48.10
2018-06-18T21:21:17.608Z,48.10
2018-06-18T21:23:50.728Z,49.60
2018-06-18T21:26:23.670Z,46.90
2018-06-18T21:28:56.895Z,47.10
2018-06-18T21:31:29.952Z,46.30
2018-06-18T21:34:02.965Z,47.80
2018-06-18T21:36:35.889Z,49.30
2018-06-18T21:39:12.100Z,49.20
2018-06-18T21:41:45.178Z,44.70
2018-06-18T21:44:22.930Z,48.40
2018-06-18T21:46:55.951Z,43.50
2018-06-18T21:49:28.942Z,44.10
2018-06-18T21:52:02.064Z,41.40
2018-06-18T21:54:35.082Z,43.50
2018-06-18T21:57:08.220Z,42.60
2018-06-18T21:59:41.243Z,43.40
2018-06-18T22:02:14.367Z,46.80
2018-06-18T22:04:47.408Z,45.80
2018-06-18T22:07:20.465Z,45.30
2018-06-18T22:09:53.474Z,45.40
2018-06-18T22:12:27.370Z,46.70
2018-06-18T22:15:00.360Z,46.10
2018-06-18T22:17:33.433Z,48.90
2018-06-18T22:20:06.497Z,47.70
2018-06-18T22:22:39.421Z,48.00
2018-06-18T22:25:12.534Z,49.30
2018-06-18T22:27:45.653Z,48.90
2018-06-18T22:30:19.392Z,48.90
2018-06-18T22:32:52.501Z,50.10
2018-06-18T22:35:25.473Z,50.10
2018-06-18T22:37:58.561Z,51.10
2018-06-18T22:40:31.645Z,50.40
2018-06-18T22:43:04.780Z,54.80
2018-06-18T22:45:37.973Z,51.30
2018-06-18T22:48:10.936Z,52.20
2018-06-18T22:50:43.827Z,50.90
2018-06-18T22:53:17.581Z,53.10
2018-06-18T22:55:50.753Z,50.40
2018-06-18T22:58:23.719Z,51.70
2018-06-18T23:00:58.159Z,50.50
2018-06-18T23:03:31.251Z,50.40
2018-06-18T23:06:04.267Z,49.20
2018-06-18T23:08:37.218Z,50.30
2018-06-18T23:11:10.637Z,49.50
2018-06-18T23:13:45.585Z,50.50
2018-06-18T23:16:19.458Z,48.50
2018-06-18T23:18:52.604Z,47.00
2018-06-18T23:21:25.539Z,46.40
2018-06-18T23:23:58.548Z,46.00
2018-06-18T23:26:31.550Z,46.90
2018-06-18T23:29:07.269Z,43.50
2018-06-18T23:31:40.184Z,46.60
2018-06-18T23:34:14.453Z,47.00
2018-06-18T23:36:47.453Z,47.90
2018-06-18T23:39:20.593Z,44.40
2018-06-18T23:41:56.589Z,46.10
2018-06-18T23:44:30.902Z,44.90
2018-06-18T23:49:46.241Z,46.40
2018-06-18T23:52:19.318Z,46.40
2018-06-18T23:54:52.331Z,48.30
2018-06-18T23:57:25.420Z,47.50
2018-06-18T23:59:58.705Z,47.40
